Dades meteomassalio
Diari Summary for Gener 7, 2018 Units:  Both    English   Metric
« Previous Day
Next Day »
Diari Semanal Mensual Anual Personalitzat
  Maxima: Minima: Mijana:
Temperatura: TemperatureC °F /  -17.8 °C -0.6 °F /  -18.1 °C 4.1 °F /  -15.5 °C
Rosada: DewpointC °F /  -17.8 °C -1.6 °F /  -18.7 °C 2.9 °F /  -16.2 °C
Humitat: Humidity % 84 % 92 %
Velocitat del vent: WindSpeedKMH mph /  0 km/h - 1.2 mph /  1.9 km/h
Racha vent: WindSpeedGustKMH mph /  0 km/h - -
Vent:- - South
Pressio: PressurehPa in /  0 hPa 1000.2 in /  33866.8 hPa -
Pluja: 2.3 in /  58.42 mm    
Historical Graphs
 
 
Tabular Data for Gener 7, 2018
Time Temperature Dew Point Pressure Wind Wind Speed Wind Gust Humidity Rainfall Rate (Hourly) solar Conditions
TemperatureC °F /  -17.8 °C DewpointC °F /  -17.8 °C PressurehPa in /  0 hPa Calm     Humidity % HourlyPrecipMM in /  0 mm SolarRadiationWatts/m^2 W/m2 Conditions
00:02 5.0 °F /  -15 °C 3.8 °F /  -15.7 °C 1000.6 in /  33880.3 hPa Calm     92 % 0.3 in /  7.62 mm 0.0 W/m2 RA
00:04 4.4 °F /  -15.3 °C 3.3 °F /  -15.9 °C 1000.6 in /  33880.3 hPa Calm     92 % 0.3 in /  7.62 mm 0.0 W/m2 RA
00:09 4.4 °F /  -15.3 °C 3.3 °F /  -15.9 °C 1000.6 in /  33880.3 hPa ENE 5.6 mph /  9 km/h   92 % 0.3 in /  7.62 mm 0.0 W/m2 CLR
00:13 4.4 °F /  -15.3 °C 3.3 °F /  -15.9 °C 1000.6 in /  33880.3 hPa Calm     92 % 0.0 in /  0 mm 0.0 W/m2 CLR
00:18 3.9 °F /  -15.6 °C 2.7 °F /  -16.3 °C 1000.2 in /  33866.8 hPa Calm     92 % 0.0 in /  0 mm 0.0 W/m2 CLR
00:21 3.9 °F /  -15.6 °C 2.7 °F /  -16.3 °C 1000.2 in /  33866.8 hPa Calm     92 % 0.0 in /  0 mm 0.0 W/m2 CLR
00:23 3.9 °F /  -15.6 °C 2.7 °F /  -16.3 °C 1000.2 in /  33866.8 hPa Calm     92 % 0.0 in /  0 mm 0.0 W/m2 CLR
00:28 3.9 °F /  -15.6 °C 2.8 °F /  -16.2 °C 1000.6 in /  33880.3 hPa Calm     93 % 0.0 in /  0 mm 0.0 W/m2 CLR
00:30 3.9 °F /  -15.6 °C 2.7 °F /  -16.3 °C 1000.6 in /  33880.3 hPa Calm     92 % 0.0 in /  0 mm 0.0 W/m2 CLR
00:35 3.9 °F /  -15.6 °C 2.8 °F /  -16.2 °C 1000.6 in /  33880.3 hPa Calm     93 % 0.0 in /  0 mm 0.0 W/m2 CLR
00:40 3.9 °F /  -15.6 °C 2.8 °F /  -16.2 °C 1000.6 in /  33880.3 hPa NNE 12.9 mph /  20.8 km/h 12.9 mph /  20.8 km/h 93 % 0.0 in /  0 mm 0.0 W/m2 CLR
00:45 3.9 °F /  -15.6 °C 2.8 °F /  -16.2 °C 1000.6 in /  33880.3 hPa Calm     93 % 0.0 in /  0 mm 0.0 W/m2 CLR
00:50 3.9 °F /  -15.6 °C 2.8 °F /  -16.2 °C 1000.6 in /  33880.3 hPa Calm     93 % 0.0 in /  0 mm 0.0 W/m2 CLR
00:52 3.9 °F /  -15.6 °C 2.8 °F /  -16.2 °C 1000.6 in /  33880.3 hPa Calm     93 % 0.0 in /  0 mm 0.0 W/m2 CLR
00:56 3.9 °F /  -15.6 °C 2.8 °F /  -16.2 °C 1000.6 in /  33880.3 hPa Calm     93 % 0.0 in /  0 mm 0.0 W/m2 CLR
00:59 3.9 °F /  -15.6 °C 2.8 °F /  -16.2 °C 1000.6 in /  33880.3 hPa Calm     93 % 0.0 in /  0 mm 0.0 W/m2 CLR
01:04 3.9 °F /  -15.6 °C 2.8 °F /  -16.2 °C 1000.6 in /  33880.3 hPa Calm     93 % 0.0 in /  0 mm 0.0 W/m2 CLR
01:09 3.3 °F /  -15.9 °C 2.3 °F /  -16.5 °C 1000.9 in /  33890.5 hPa Calm     93 % 0.0 in /  0 mm 0.0 W/m2 CLR
01:12 3.3 °F /  -15.9 °C 2.3 °F /  -16.5 °C 1000.6 in /  33880.3 hPa Calm     93 % 0.0 in /  0 mm 0.0 W/m2 CLR
01:17 3.3 °F /  -15.9 °C 2.3 °F /  -16.5 °C 1000.6 in /  33880.3 hPa Calm     93 % 0.0 in /  0 mm 0.0 W/m2 CLR
01:22 3.3 °F /  -15.9 °C 2.3 °F /  -16.5 °C 1000.6 in /  33880.3 hPa Calm     93 % 0.0 in /  0 mm 0.0 W/m2 CLR
01:27 3.3 °F /  -15.9 °C 2.3 °F /  -16.5 °C 1000.6 in /  33880.3 hPa Calm     93 % 0.0 in /  0 mm 0.0 W/m2 CLR
01:28 3.3 °F /  -15.9 °C 2.3 °F /  -16.5 °C 1000.6 in /  33880.3 hPa Calm     93 % 0.0 in /  0 mm 0.0 W/m2 CLR
01:33 3.3 °F /  -15.9 °C 2.3 °F /  -16.5 °C 1000.6 in /  33880.3 hPa Calm     93 % 0.3 in /  7.62 mm 0.0 W/m2 RA
01:34 3.3 °F /  -15.9 °C 2.3 °F /  -16.5 °C 1000.6 in /  33880.3 hPa Calm     93 % 0.3 in /  7.62 mm 0.0 W/m2 RA
01:39 3.9 °F /  -15.6 °C 2.8 °F /  -16.2 °C 1000.6 in /  33880.3 hPa Calm     93 % 0.3 in /  7.62 mm 0.0 W/m2 CLR
01:49 3.9 °F /  -15.6 °C 2.8 °F /  -16.2 °C 1000.6 in /  33880.3 hPa Calm     93 % 0.3 in /  7.62 mm 0.0 W/m2 CLR
01:53 3.9 °F /  -15.6 °C 2.8 °F /  -16.2 °C 1000.6 in /  33880.3 hPa Calm     93 % 0.3 in /  7.62 mm 0.0 W/m2 CLR
01:56 3.3 °F /  -15.9 °C 2.3 °F /  -16.5 °C 1000.6 in /  33880.3 hPa Calm     93 % 0.3 in /  7.62 mm 0.0 W/m2 CLR
02:01 3.3 °F /  -15.9 °C 2.3 °F /  -16.5 °C 1000.6 in /  33880.3 hPa Calm     93 % 0.3 in /  7.62 mm 0.0 W/m2 CLR
02:06 3.3 °F /  -15.9 °C 2.3 °F /  -16.5 °C 1000.6 in /  33880.3 hPa North 6.4 mph /  10.3 km/h 6.4 mph /  10.3 km/h 93 % 0.3 in /  7.62 mm 0.0 W/m2 CLR
02:11 3.3 °F /  -15.9 °C 2.3 °F /  -16.5 °C 1000.6 in /  33880.3 hPa North 3.2 mph /  5.1 km/h   93 % 0.3 in /  7.62 mm 0.0 W/m2 CLR
02:15 3.3 °F /  -15.9 °C 2.3 °F /  -16.5 °C 1000.6 in /  33880.3 hPa NNE 14.8 mph /  23.8 km/h 14.8 mph /  23.8 km/h 93 % 0.3 in /  7.62 mm 0.0 W/m2 CLR
02:20 3.3 °F /  -15.9 °C 2.3 °F /  -16.5 °C 1000.9 in /  33890.5 hPa NNW 13.0 mph /  20.9 km/h 13.0 mph /  20.9 km/h 93 % 0.3 in /  7.62 mm 0.0 W/m2 CLR
02:22 2.8 °F /  -16.2 °C 1.8 °F /  -16.8 °C 1000.9 in /  33890.5 hPa North 16.7 mph /  26.9 km/h 16.7 mph /  26.9 km/h 93 % 0.3 in /  7.62 mm 0.0 W/m2 CLR
02:27 2.8 °F /  -16.2 °C 1.8 °F /  -16.8 °C 1000.9 in /  33890.5 hPa North 22.5 mph /  36.2 km/h 22.5 mph /  36.2 km/h 93 % 0.3 in /  7.62 mm 0.0 W/m2 CLR
02:32 2.8 °F /  -16.2 °C 1.8 °F /  -16.8 °C 1000.9 in /  33890.5 hPa North 20.4 mph /  32.8 km/h 20.4 mph /  32.8 km/h 93 % 0.3 in /  7.62 mm 0.0 W/m2 RA
02:38 2.8 °F /  -16.2 °C 1.8 °F /  -16.8 °C 1000.9 in /  33890.5 hPa NNW 18.5 mph /  29.8 km/h 18.5 mph /  29.8 km/h 93 % 0.3 in /  7.62 mm 0.0 W/m2 CLR
02:43 2.8 °F /  -16.2 °C 1.8 °F /  -16.8 °C 1000.9 in /  33890.5 hPa Calm     93 % 0.3 in /  7.62 mm 0.0 W/m2 CLR
02:45 2.8 °F /  -16.2 °C 1.8 °F /  -16.8 °C 1000.9 in /  33890.5 hPa Calm     93 % 0.3 in /  7.62 mm 0.0 W/m2 CLR
02:50 2.8 °F /  -16.2 °C 1.8 °F /  -16.8 °C 1001.2 in /  33900.6 hPa Calm     93 % 0.5 in /  12.7 mm 0.0 W/m2 RA
02:53 2.8 °F /  -16.2 °C 1.8 °F /  -16.8 °C 1001.2 in /  33900.6 hPa Calm     93 % 0.5 in /  12.7 mm 0.0 W/m2 CLR
02:55 2.8 °F /  -16.2 °C 1.8 °F /  -16.8 °C 1001.2 in /  33900.6 hPa Calm     93 % 0.5 in /  12.7 mm 0.0 W/m2 CLR
03:00 2.8 °F /  -16.2 °C 1.8 °F /  -16.8 °C 1000.9 in /  33890.5 hPa West 16.7 mph /  26.9 km/h 16.7 mph /  26.9 km/h 93 % 0.5 in /  12.7 mm 0.0 W/m2 RA
03:02 2.8 °F /  -16.2 °C 1.8 °F /  -16.8 °C 1001.2 in /  33900.6 hPa WNW 16.7 mph /  26.9 km/h 16.7 mph /  26.9 km/h 93 % 0.5 in /  12.7 mm 0.0 W/m2
03:08 2.8 °F /  -16.2 °C 1.8 °F /  -16.8 °C 1001.2 in /  33900.6 hPa Calm     93 % 0.5 in /  12.7 mm 0.0 W/m2 CLR
03:12 2.8 °F /  -16.2 °C 1.8 °F /  -16.8 °C 1001.2 in /  33900.6 hPa WNW 5.6 mph /  9 km/h 5.6 mph /  9 km/h 93 % 0.5 in /  12.7 mm 0.0 W/m2 CLR
03:17 2.8 °F /  -16.2 °C 1.8 °F /  -16.8 °C 1001.2 in /  33900.6 hPa WNW 8.0 mph /  12.9 km/h 8.0 mph /  12.9 km/h 93 % 0.8 in /  20.32 mm 0.0 W/m2 RA
03:22 3.3 °F /  -15.9 °C 2.3 °F /  -16.5 °C 1001.2 in /  33900.6 hPa NW 5.6 mph /  9 km/h   93 % 1.0 in /  25.4 mm 0.0 W/m2 RA
03:27 3.3 °F /  -15.9 °C 2.3 °F /  -16.5 °C 1000.9 in /  33890.5 hPa Calm     93 % 1.0 in /  25.4 mm 0.0 W/m2 CLR
03:32 3.3 °F /  -15.9 °C 2.3 °F /  -16.5 °C 1000.9 in /  33890.5 hPa Calm     93 % 1.0 in /  25.4 mm 0.0 W/m2 RA
03:35 3.3 °F /  -15.9 °C 2.3 °F /  -16.5 °C 1000.9 in /  33890.5 hPa Calm     93 % 1.0 in /  25.4 mm 0.0 W/m2 RA
03:41 3.3 °F /  -15.9 °C 2.3 °F /  -16.5 °C 1000.9 in /  33890.5 hPa Calm     93 % 1.0 in /  25.4 mm 0.0 W/m2 CLR
03:46 3.3 °F /  -15.9 °C 2.3 °F /  -16.5 °C 1000.9 in /  33890.5 hPa NW 1.9 mph /  3.1 km/h   93 % 1.0 in /  25.4 mm 0.0 W/m2 CLR
03:51 3.3 °F /  -15.9 °C 2.3 °F /  -16.5 °C 1000.9 in /  33890.5 hPa Calm     93 % 0.8 in /  20.32 mm 0.0 W/m2 CLR
03:56 3.3 °F /  -15.9 °C 2.3 °F /  -16.5 °C 1000.9 in /  33890.5 hPa Calm     93 % 0.8 in /  20.32 mm 0.0 W/m2 CLR
03:58 3.3 °F /  -15.9 °C 2.3 °F /  -16.5 °C 1000.9 in /  33890.5 hPa Calm     93 % 0.5 in /  12.7 mm 0.0 W/m2 CLR
04:03 3.3 °F /  -15.9 °C 2.3 °F /  -16.5 °C 1000.9 in /  33890.5 hPa Calm     93 % 0.5 in /  12.7 mm 0.0 W/m2 CLR
04:08 3.3 °F /  -15.9 °C 2.3 °F /  -16.5 °C 1000.9 in /  33890.5 hPa Calm     93 % 0.5 in /  12.7 mm 0.0 W/m2 CLR
04:09 3.3 °F /  -15.9 °C 2.3 °F /  -16.5 °C 1000.9 in /  33890.5 hPa Calm     93 % 0.5 in /  12.7 mm 0.0 W/m2 CLR
04:14 3.3 °F /  -15.9 °C 2.3 °F /  -16.5 °C 1001.2 in /  33900.6 hPa Calm     93 % 0.5 in /  12.7 mm 0.0 W/m2 CLR
04:19 3.3 °F /  -15.9 °C 2.3 °F /  -16.5 °C 1001.2 in /  33900.6 hPa Calm     93 % 0.5 in /  12.7 mm 0.0 W/m2 RA
04:23 3.3 °F /  -15.9 °C 2.3 °F /  -16.5 °C 1000.9 in /  33890.5 hPa Calm     93 % 0.5 in /  12.7 mm 0.0 W/m2
04:28 3.3 °F /  -15.9 °C 2.3 °F /  -16.5 °C 1000.9 in /  33890.5 hPa Calm     93 % 0.5 in /  12.7 mm 0.0 W/m2 CLR
04:33 3.3 °F /  -15.9 °C 2.3 °F /  -16.5 °C 1000.9 in /  33890.5 hPa Calm     93 % 0.3 in /  7.62 mm 0.0 W/m2 CLR
04:38 3.3 °F /  -15.9 °C 2.3 °F /  -16.5 °C 1000.9 in /  33890.5 hPa Calm     93 % 0.3 in /  7.62 mm 0.0 W/m2 CLR
04:41 3.3 °F /  -15.9 °C 2.3 °F /  -16.5 °C 1000.9 in /  33890.5 hPa Calm     93 % 0.3 in /  7.62 mm 0.0 W/m2 CLR
04:44 3.3 °F /  -15.9 °C 2.3 °F /  -16.5 °C 1000.9 in /  33890.5 hPa Calm     93 % 0.3 in /  7.62 mm 0.0 W/m2 CLR
04:49 3.3 °F /  -15.9 °C 2.3 °F /  -16.5 °C 1000.9 in /  33890.5 hPa Calm     93 % 0.3 in /  7.62 mm 0.0 W/m2 CLR
04:54 3.3 °F /  -15.9 °C 2.3 °F /  -16.5 °C 1000.9 in /  33890.5 hPa Calm     93 % 0.3 in /  7.62 mm 0.0 W/m2 CLR
04:57 3.3 °F /  -15.9 °C 2.3 °F /  -16.5 °C 1000.9 in /  33890.5 hPa Calm     93 % 0.3 in /  7.62 mm 0.0 W/m2 CLR
04:59 3.3 °F /  -15.9 °C 2.3 °F /  -16.5 °C 1000.9 in /  33890.5 hPa Calm     93 % 0.3 in /  7.62 mm 0.0 W/m2 CLR
05:04 3.3 °F /  -15.9 °C 2.3 °F /  -16.5 °C 1001.2 in /  33900.6 hPa Calm     93 % 0.5 in /  12.7 mm 0.0 W/m2 RA
05:07 3.3 °F /  -15.9 °C 2.3 °F /  -16.5 °C 1001.2 in /  33900.6 hPa Calm     93 % 0.5 in /  12.7 mm 0.0 W/m2 CLR
05:09 3.3 °F /  -15.9 °C 2.3 °F /  -16.5 °C 1001.2 in /  33900.6 hPa Calm     93 % 0.5 in /  12.7 mm 0.0 W/m2 CLR
05:14 3.3 °F /  -15.9 °C 2.3 °F /  -16.5 °C 1001.2 in /  33900.6 hPa WNW 9.3 mph /  15 km/h 9.3 mph /  15 km/h 93 % 0.5 in /  12.7 mm 0.0 W/m2 CLR
05:19 3.3 °F /  -15.9 °C 2.3 °F /  -16.5 °C 1001.2 in /  33900.6 hPa Calm     93 % 0.3 in /  7.62 mm 0.0 W/m2 CLR
05:24 3.3 °F /  -15.9 °C 2.3 °F /  -16.5 °C 1001.2 in /  33900.6 hPa Calm     93 % 0.3 in /  7.62 mm 0.0 W/m2 CLR
05:34 3.3 °F /  -15.9 °C 2.3 °F /  -16.5 °C 1001.2 in /  33900.6 hPa Calm     93 % 0.3 in /  7.62 mm 0.0 W/m2 CLR
05:35 3.3 °F /  -15.9 °C 2.3 °F /  -16.5 °C 1001.2 in /  33900.6 hPa Calm     93 % 0.3 in /  7.62 mm 0.0 W/m2 CLR
05:41 3.3 °F /  -15.9 °C 2.3 °F /  -16.5 °C 1001.2 in /  33900.6 hPa Calm     93 % 0.3 in /  7.62 mm 0.0 W/m2 CLR
05:45 3.3 °F /  -15.9 °C 2.3 °F /  -16.5 °C 1001.2 in /  33900.6 hPa Calm     93 % 0.3 in /  7.62 mm 0.0 W/m2 CLR
05:50 3.3 °F /  -15.9 °C 2.3 °F /  -16.5 °C 1001.2 in /  33900.6 hPa Calm     93 % 0.3 in /  7.62 mm 0.0 W/m2 CLR
05:52 3.3 °F /  -15.9 °C 2.3 °F /  -16.5 °C 1001.2 in /  33900.6 hPa Calm     93 % 0.3 in /  7.62 mm 0.0 W/m2 CLR
05:57 3.3 °F /  -15.9 °C 2.3 °F /  -16.5 °C 1001.2 in /  33900.6 hPa Calm     93 % 0.3 in /  7.62 mm 0.0 W/m2 CLR
05:59 3.3 °F /  -15.9 °C 2.3 °F /  -16.5 °C 1001.2 in /  33900.6 hPa Calm     93 % 0.3 in /  7.62 mm 0.0 W/m2 CLR
06:04 3.3 °F /  -15.9 °C 2.3 °F /  -16.5 °C 1001.6 in /  33914.2 hPa Calm     93 % 0.0 in /  0 mm 0.0 W/m2 CLR
06:09 3.3 °F /  -15.9 °C 2.3 °F /  -16.5 °C 1001.6 in /  33914.2 hPa Calm     93 % 0.0 in /  0 mm 0.0 W/m2 CLR
06:10 3.3 °F /  -15.9 °C 2.3 °F /  -16.5 °C 1001.6 in /  33914.2 hPa Calm     93 % 0.0 in /  0 mm 0.0 W/m2 CLR
06:15 3.3 °F /  -15.9 °C 2.3 °F /  -16.5 °C 1001.6 in /  33914.2 hPa Calm     93 % 0.0 in /  0 mm 0.0 W/m2 CLR
06:20 3.3 °F /  -15.9 °C 2.3 °F /  -16.5 °C 1001.6 in /  33914.2 hPa Calm     93 % 0.0 in /  0 mm 0.0 W/m2 CLR
06:25 3.3 °F /  -15.9 °C 2.3 °F /  -16.5 °C 1001.6 in /  33914.2 hPa Calm     93 % 0.0 in /  0 mm 0.0 W/m2 CLR
06:30 3.3 °F /  -15.9 °C 2.3 °F /  -16.5 °C 1001.6 in /  33914.2 hPa Calm     93 % 0.0 in /  0 mm 0.0 W/m2 CLR
06:35 3.3 °F /  -15.9 °C 2.3 °F /  -16.5 °C 1001.9 in /  33924.3 hPa Calm     93 % 0.0 in /  0 mm 0.0 W/m2 CLR
06:41 3.3 °F /  -15.9 °C 2.3 °F /  -16.5 °C 1001.9 in /  33924.3 hPa Calm     93 % 0.0 in /  0 mm 0.0 W/m2 CLR
06:43 3.3 °F /  -15.9 °C 2.3 °F /  -16.5 °C 1001.9 in /  33924.3 hPa Calm     93 % 0.0 in /  0 mm 0.0 W/m2 CLR
06:48 3.3 °F /  -15.9 °C 2.3 °F /  -16.5 °C 1001.9 in /  33924.3 hPa Calm     93 % 0.0 in /  0 mm 0.0 W/m2 CLR
06:51 3.3 °F /  -15.9 °C 2.3 °F /  -16.5 °C 1001.9 in /  33924.3 hPa Calm     93 % 0.0 in /  0 mm 0.0 W/m2 CLR
06:56 3.3 °F /  -15.9 °C 2.3 °F /  -16.5 °C 1001.9 in /  33924.3 hPa Calm     93 % 0.0 in /  0 mm 0.0 W/m2 CLR
06:59 3.3 °F /  -15.9 °C 2.3 °F /  -16.5 °C 1001.9 in /  33924.3 hPa Calm     93 % 0.0 in /  0 mm 0.0 W/m2 CLR
07:04 3.3 °F /  -15.9 °C 2.3 °F /  -16.5 °C 1001.9 in /  33924.3 hPa Calm     93 % 0.3 in /  7.62 mm 0.0 W/m2 RA
07:06 3.3 °F /  -15.9 °C 2.3 °F /  -16.5 °C 1001.9 in /  33924.3 hPa Calm     93 % 0.3 in /  7.62 mm 0.0 W/m2 RA
07:11 3.3 °F /  -15.9 °C 2.3 °F /  -16.5 °C 1002.3 in /  33937.9 hPa Calm     93 % 0.3 in /  7.62 mm 0.0 W/m2
07:16 3.3 °F /  -15.9 °C 2.3 °F /  -16.5 °C 1001.9 in /  33924.3 hPa Calm     93 % 0.3 in /  7.62 mm 0.0 W/m2 CLR
07:21 3.3 °F /  -15.9 °C 2.3 °F /  -16.5 °C 1002.3 in /  33937.9 hPa Calm     93 % 0.3 in /  7.62 mm 0.0 W/m2 CLR
07:26 3.3 °F /  -15.9 °C 2.3 °F /  -16.5 °C 1002.3 in /  33937.9 hPa Calm     93 % 0.3 in /  7.62 mm 0.0 W/m2 CLR
07:31 3.3 °F /  -15.9 °C 2.3 °F /  -16.5 °C 1002.6 in /  33948 hPa Calm     93 % 0.3 in /  7.62 mm 0.0 W/m2 CLR
07:32 3.3 °F /  -15.9 °C 2.3 °F /  -16.5 °C 1002.6 in /  33948 hPa Calm     93 % 0.3 in /  7.62 mm 0.0 W/m2 CLR
07:37 3.3 °F /  -15.9 °C 2.3 °F /  -16.5 °C 1002.6 in /  33948 hPa Calm     93 % 0.3 in /  7.62 mm 0.0 W/m2 CLR
07:42 3.3 °F /  -15.9 °C 2.3 °F /  -16.5 °C 1002.6 in /  33948 hPa Calm     93 % 0.3 in /  7.62 mm 0.0 W/m2 CLR
07:45 3.3 °F /  -15.9 °C 2.3 °F /  -16.5 °C 1002.6 in /  33948 hPa Calm     93 % 0.3 in /  7.62 mm 0.0 W/m2 CLR
07:50 3.3 °F /  -15.9 °C 2.3 °F /  -16.5 °C 1002.6 in /  33948 hPa Calm     93 % 0.3 in /  7.62 mm 0.0 W/m2 CLR
07:55 3.3 °F /  -15.9 °C 2.3 °F /  -16.5 °C 1002.6 in /  33948 hPa Calm     93 % 0.3 in /  7.62 mm 0.0 W/m2 CLR
07:58 3.3 °F /  -15.9 °C 2.3 °F /  -16.5 °C 1002.6 in /  33948 hPa Calm     93 % 0.3 in /  7.62 mm 0.0 W/m2 CLR
08:03 3.3 °F /  -15.9 °C 2.3 °F /  -16.5 °C 1002.6 in /  33948 hPa Calm     93 % 0.3 in /  7.62 mm 0.0 W/m2 CLR
08:08 3.3 °F /  -15.9 °C 2.3 °F /  -16.5 °C 1002.6 in /  33948 hPa Calm     93 % 0.0 in /  0 mm 0.0 W/m2 CLR
08:13 3.3 °F /  -15.9 °C 2.3 °F /  -16.5 °C 1002.9 in /  33958.2 hPa Calm     93 % 0.0 in /  0 mm 0.0 W/m2 CLR
08:18 3.3 °F /  -15.9 °C 2.3 °F /  -16.5 °C 1002.9 in /  33958.2 hPa Calm     93 % 0.0 in /  0 mm 0.0 W/m2 OVC
08:23 3.3 °F /  -15.9 °C 2.3 °F /  -16.5 °C 1002.9 in /  33958.2 hPa Calm     93 % 0.0 in /  0 mm 0.0 W/m2 OVC
08:29 3.3 °F /  -15.9 °C 2.3 °F /  -16.5 °C 1002.6 in /  33948 hPa Calm     93 % 0.0 in /  0 mm 0.0 W/m2 OVC
08:33 3.3 °F /  -15.9 °C 2.3 °F /  -16.5 °C 1002.9 in /  33958.2 hPa Calm     93 % 0.0 in /  0 mm 0.0 W/m2 OVC
08:35 3.3 °F /  -15.9 °C 2.3 °F /  -16.5 °C 1002.9 in /  33958.2 hPa Calm     93 % 0.0 in /  0 mm 5.0 W/m2 OVC
08:40 3.3 °F /  -15.9 °C 2.3 °F /  -16.5 °C 1002.9 in /  33958.2 hPa Calm     93 % 0.0 in /  0 mm 5.0 W/m2 OVC
08:45 3.3 °F /  -15.9 °C 2.3 °F /  -16.5 °C 1002.9 in /  33958.2 hPa Calm     93 % 0.0 in /  0 mm 9.0 W/m2 BKN
08:50 3.3 °F /  -15.9 °C 2.3 °F /  -16.5 °C 1002.9 in /  33958.2 hPa Calm     93 % 0.0 in /  0 mm 12.0 W/m2 BKN
08:52 3.3 °F /  -15.9 °C 2.3 °F /  -16.5 °C 1002.9 in /  33958.2 hPa Calm     93 % 0.0 in /  0 mm 12.0 W/m2 BKN
08:57 2.8 °F /  -16.2 °C 1.8 °F /  -16.8 °C 1003.3 in /  33971.7 hPa Calm     93 % 0.0 in /  0 mm 18.0 W/m2 BKN
09:02 2.8 °F /  -16.2 °C 1.8 °F /  -16.8 °C 1003.3 in /  33971.7 hPa Calm     93 % 0.0 in /  0 mm 19.0 W/m2 BKN
09:07 2.8 °F /  -16.2 °C 1.8 °F /  -16.8 °C 1003.3 in /  33971.7 hPa Calm     93 % 0.0 in /  0 mm 19.0 W/m2 BKN
09:10 2.8 °F /  -16.2 °C 1.8 °F /  -16.8 °C 1003.3 in /  33971.7 hPa Calm     93 % 0.0 in /  0 mm 21.0 W/m2 BKN
09:15 3.3 °F /  -15.9 °C 2.3 °F /  -16.5 °C 1003.3 in /  33971.7 hPa Calm     93 % 0.0 in /  0 mm 21.0 W/m2 BKN
09:20 3.3 °F /  -15.9 °C 2.3 °F /  -16.5 °C 1003.6 in /  33981.9 hPa Calm     93 % 0.0 in /  0 mm 28.0 W/m2 BKN
09:24 3.3 °F /  -15.9 °C 2.3 °F /  -16.5 °C 1003.6 in /  33981.9 hPa Calm     93 % 0.0 in /  0 mm 26.0 W/m2 BKN
09:29 3.3 °F /  -15.9 °C 2.3 °F /  -16.5 °C 1003.6 in /  33981.9 hPa Calm     93 % 0.0 in /  0 mm 26.0 W/m2 BKN
09:34 3.3 °F /  -15.9 °C 2.3 °F /  -16.5 °C 1003.9 in /  33992.1 hPa Calm     93 % 0.0 in /  0 mm 26.0 W/m2 BKN
09:35 3.3 °F /  -15.9 °C 2.3 °F /  -16.5 °C 1003.6 in /  33981.9 hPa Calm     93 % 0.0 in /  0 mm 26.0 W/m2 BKN
09:41 3.3 °F /  -15.9 °C 2.3 °F /  -16.5 °C 1003.6 in /  33981.9 hPa Calm     93 % 0.0 in /  0 mm 26.0 W/m2 BKN
09:44 3.3 °F /  -15.9 °C 2.3 °F /  -16.5 °C 1003.6 in /  33981.9 hPa Calm     93 % 0.0 in /  0 mm 26.0 W/m2 BKN
09:49 3.3 °F /  -15.9 °C 2.3 °F /  -16.5 °C 1003.9 in /  33992.1 hPa Calm     93 % 0.0 in /  0 mm 32.0 W/m2 BKN
09:54 3.3 °F /  -15.9 °C 2.3 °F /  -16.5 °C 1003.9 in /  33992.1 hPa Calm     93 % 0.0 in /  0 mm 37.0 W/m2 BKN
09:58 3.3 °F /  -15.9 °C 2.3 °F /  -16.5 °C 1003.9 in /  33992.1 hPa Calm     93 % 0.0 in /  0 mm 40.0 W/m2 BKN
10:03 3.3 °F /  -15.9 °C 2.3 °F /  -16.5 °C 1003.9 in /  33992.1 hPa Calm     93 % 0.0 in /  0 mm 65.0 W/m2 BKN
10:08 3.9 °F /  -15.6 °C 2.8 °F /  -16.2 °C 1004.3 in /  34005.6 hPa Calm     93 % 0.0 in /  0 mm 88.0 W/m2 SCT
10:11 3.9 °F /  -15.6 °C 2.8 °F /  -16.2 °C 1004.3 in /  34005.6 hPa Calm     93 % 0.0 in /  0 mm 93.0 W/m2 FEW
10:16 3.9 °F /  -15.6 °C 2.8 °F /  -16.2 °C 1004.3 in /  34005.6 hPa Calm     93 % 0.0 in /  0 mm 86.0 W/m2 CLR
10:17 3.9 °F /  -15.6 °C 2.8 °F /  -16.2 °C 1004.3 in /  34005.6 hPa Calm     93 % 0.0 in /  0 mm 88.0 W/m2 CLR
10:21 3.9 °F /  -15.6 °C 2.8 °F /  -16.2 °C 1004.6 in /  34015.8 hPa Calm     93 % 0.0 in /  0 mm 97.0 W/m2 CLR
10:23 3.9 °F /  -15.6 °C 2.8 °F /  -16.2 °C 1004.6 in /  34015.8 hPa Calm     93 % 0.0 in /  0 mm 98.0 W/m2 CLR
10:27 3.9 °F /  -15.6 °C 2.8 °F /  -16.2 °C 1004.6 in /  34015.8 hPa Calm     93 % 0.0 in /  0 mm 97.0 W/m2 CLR
10:32 3.9 °F /  -15.6 °C 2.8 °F /  -16.2 °C 1004.6 in /  34015.8 hPa Calm     93 % 0.0 in /  0 mm 100.0 W/m2 CLR
10:38 3.9 °F /  -15.6 °C 2.8 °F /  -16.2 °C 1004.6 in /  34015.8 hPa Calm     93 % 0.0 in /  0 mm 100.0 W/m2 CLR
10:43 3.9 °F /  -15.6 °C 2.8 °F /  -16.2 °C 1005.0 in /  34029.3 hPa Calm     93 % 0.0 in /  0 mm 102.0 W/m2 CLR
10:44 3.9 °F /  -15.6 °C 2.8 °F /  -16.2 °C 1005.0 in /  34029.3 hPa Calm     93 % 0.0 in /  0 mm 102.0 W/m2 CLR
10:49 3.9 °F /  -15.6 °C 2.8 °F /  -16.2 °C 1005.0 in /  34029.3 hPa Calm     93 % 0.0 in /  0 mm 114.0 W/m2 CLR
10:52 3.9 °F /  -15.6 °C 2.8 °F /  -16.2 °C 1005.0 in /  34029.3 hPa Calm     93 % 0.0 in /  0 mm 167.0 W/m2 CLR
10:57 3.9 °F /  -15.6 °C 2.8 °F /  -16.2 °C 1005.0 in /  34029.3 hPa Calm     93 % 0.0 in /  0 mm 114.0 W/m2 CLR
11:02 3.9 °F /  -15.6 °C 2.8 °F /  -16.2 °C 1005.0 in /  34029.3 hPa Calm     93 % 0.0 in /  0 mm 116.0 W/m2 CLR
11:07 3.9 °F /  -15.6 °C 2.8 °F /  -16.2 °C 1005.0 in /  34029.3 hPa Calm     93 % 0.0 in /  0 mm 111.0 W/m2 CLR
11:12 3.9 °F /  -15.6 °C 2.8 °F /  -16.2 °C 1005.0 in /  34029.3 hPa Calm     93 % 0.0 in /  0 mm 148.0 W/m2 CLR
11:15 3.9 °F /  -15.6 °C 2.8 °F /  -16.2 °C 1005.0 in /  34029.3 hPa Calm     93 % 0.0 in /  0 mm 155.0 W/m2 CLR
11:20 4.4 °F /  -15.3 °C 3.4 °F /  -15.9 °C 1005.3 in /  34039.5 hPa Calm     93 % 0.0 in /  0 mm 156.0 W/m2 CLR
11:25 4.4 °F /  -15.3 °C 3.4 °F /  -15.9 °C 1005.3 in /  34039.5 hPa Calm     93 % 0.0 in /  0 mm 156.0 W/m2 CLR
11:30 4.4 °F /  -15.3 °C 3.4 °F /  -15.9 °C 1005.3 in /  34039.5 hPa Calm     93 % 0.0 in /  0 mm 156.0 W/m2 CLR
11:31 4.4 °F /  -15.3 °C 3.4 °F /  -15.9 °C 1005.3 in /  34039.5 hPa Calm     93 % 0.0 in /  0 mm 156.0 W/m2 CLR
11:32 4.4 °F /  -15.3 °C 3.4 °F /  -15.9 °C 1005.3 in /  34039.5 hPa Calm     93 % 0.0 in /  0 mm 158.0 W/m2 CLR
11:37 4.4 °F /  -15.3 °C 3.4 °F /  -15.9 °C 1005.3 in /  34039.5 hPa Calm     93 % 0.0 in /  0 mm 181.0 W/m2 CLR
11:38 4.4 °F /  -15.3 °C 3.4 °F /  -15.9 °C 1005.3 in /  34039.5 hPa Calm     93 % 0.0 in /  0 mm 181.0 W/m2 CLR
11:43 4.4 °F /  -15.3 °C 3.4 °F /  -15.9 °C 1005.6 in /  34049.6 hPa Calm     93 % 0.0 in /  0 mm 144.0 W/m2 CLR
11:47 4.4 °F /  -15.3 °C 3.4 °F /  -15.9 °C 1005.6 in /  34049.6 hPa Calm     93 % 0.0 in /  0 mm 137.0 W/m2 CLR
11:52 5.0 °F /  -15 °C 3.9 °F /  -15.6 °C 1005.6 in /  34049.6 hPa Calm     93 % 0.0 in /  0 mm 155.0 W/m2 CLR
11:56 5.0 °F /  -15 °C 3.9 °F /  -15.6 °C 1005.6 in /  34049.6 hPa Calm     93 % 0.0 in /  0 mm 179.0 W/m2 CLR
12:02 5.0 °F /  -15 °C 3.9 °F /  -15.6 °C 1005.6 in /  34049.6 hPa Calm     93 % 0.0 in /  0 mm 162.0 W/m2 CLR
12:07 5.0 °F /  -15 °C 3.9 °F /  -15.6 °C 1005.6 in /  34049.6 hPa Calm     93 % 0.0 in /  0 mm 155.0 W/m2 CLR
12:12 5.0 °F /  -15 °C 3.9 °F /  -15.6 °C 1005.6 in /  34049.6 hPa Calm     93 % 0.0 in /  0 mm 167.0 W/m2 CLR
12:13 5.0 °F /  -15 °C 3.9 °F /  -15.6 °C 1005.6 in /  34049.6 hPa Calm     93 % 0.0 in /  0 mm 176.0 W/m2 CLR
12:19 5.6 °F /  -14.7 °C 4.5 °F /  -15.3 °C 1005.6 in /  34049.6 hPa Calm     93 % 0.0 in /  0 mm 162.0 W/m2 CLR
12:23 5.6 °F /  -14.7 °C 4.5 °F /  -15.3 °C 1005.6 in /  34049.6 hPa Calm     93 % 0.0 in /  0 mm 181.0 W/m2 CLR
12:28 5.6 °F /  -14.7 °C 4.5 °F /  -15.3 °C 1005.6 in /  34049.6 hPa Calm     93 % 0.0 in /  0 mm 200.0 W/m2 CLR
12:33 5.6 °F /  -14.7 °C 4.5 °F /  -15.3 °C 1005.6 in /  34049.6 hPa Calm     93 % 0.0 in /  0 mm 197.0 W/m2 CLR
12:34 5.6 °F /  -14.7 °C 4.5 °F /  -15.3 °C 1005.6 in /  34049.6 hPa Calm     93 % 0.0 in /  0 mm 197.0 W/m2 CLR
12:38 5.6 °F /  -14.7 °C 4.5 °F /  -15.3 °C 1005.6 in /  34049.6 hPa Calm     93 % 0.0 in /  0 mm 193.0 W/m2 CLR
12:43 5.6 °F /  -14.7 °C 4.5 °F /  -15.3 °C 1005.6 in /  34049.6 hPa Calm     93 % 0.0 in /  0 mm 197.0 W/m2 CLR
12:48 5.6 °F /  -14.7 °C 4.5 °F /  -15.3 °C 1005.6 in /  34049.6 hPa Calm     93 % 0.0 in /  0 mm 214.0 W/m2 CLR
12:50 5.6 °F /  -14.7 °C 4.5 °F /  -15.3 °C 1005.6 in /  34049.6 hPa Calm     93 % 0.0 in /  0 mm 213.0 W/m2 CLR
12:55 5.6 °F /  -14.7 °C 4.3 °F /  -15.4 °C 1005.6 in /  34049.6 hPa Calm     92 % 0.0 in /  0 mm 195.0 W/m2 CLR
12:56 5.6 °F /  -14.7 °C 4.3 °F /  -15.4 °C 1005.6 in /  34049.6 hPa Calm     92 % 0.0 in /  0 mm 193.0 W/m2 CLR
13:01 5.6 °F /  -14.7 °C 4.3 °F /  -15.4 °C 1005.6 in /  34049.6 hPa Calm     92 % 0.0 in /  0 mm 192.0 W/m2 CLR
13:06 5.6 °F /  -14.7 °C 4.3 °F /  -15.4 °C 1005.6 in /  34049.6 hPa Calm     92 % 0.0 in /  0 mm 197.0 W/m2 CLR
13:11 5.6 °F /  -14.7 °C 4.3 °F /  -15.4 °C 1005.6 in /  34049.6 hPa Calm     92 % 0.0 in /  0 mm 188.0 W/m2 CLR
13:14 5.6 °F /  -14.7 °C 4.5 °F /  -15.3 °C 1005.6 in /  34049.6 hPa Calm     93 % 0.0 in /  0 mm 186.0 W/m2 CLR
13:19 6.1 °F /  -14.4 °C 5.1 °F /  -14.9 °C 1005.6 in /  34049.6 hPa Calm     93 % 0.0 in /  0 mm 178.0 W/m2 CLR
13:24 6.1 °F /  -14.4 °C 4.9 °F /  -15.1 °C 1005.6 in /  34049.6 hPa Calm     92 % 0.0 in /  0 mm 186.0 W/m2 CLR
13:25 6.1 °F /  -14.4 °C 4.9 °F /  -15.1 °C 1006.0 in /  34063.2 hPa Calm     92 % 0.0 in /  0 mm 199.0 W/m2 CLR
13:32 6.1 °F /  -14.4 °C 5.1 °F /  -14.9 °C 1006.0 in /  34063.2 hPa Calm     93 % 0.0 in /  0 mm 202.0 W/m2 CLR
13:37 6.1 °F /  -14.4 °C 4.9 °F /  -15.1 °C 1005.6 in /  34049.6 hPa Calm     92 % 0.0 in /  0 mm 221.0 W/m2 CLR
13:41 6.1 °F /  -14.4 °C 5.1 °F /  -14.9 °C 1006.0 in /  34063.2 hPa Calm     93 % 0.0 in /  0 mm 220.0 W/m2 CLR
13:46 6.1 °F /  -14.4 °C 4.9 °F /  -15.1 °C 1006.0 in /  34063.2 hPa Calm     92 % 0.0 in /  0 mm 165.0 W/m2 CLR
13:49 6.1 °F /  -14.4 °C 4.9 °F /  -15.1 °C 1006.0 in /  34063.2 hPa Calm     92 % 0.0 in /  0 mm 167.0 W/m2 CLR
13:53 6.1 °F /  -14.4 °C 4.9 °F /  -15.1 °C 1006.0 in /  34063.2 hPa NE 3.7 mph /  6 km/h 3.7 mph /  6 km/h 92 % 0.0 in /  0 mm 183.0 W/m2 CLR
13:58 6.1 °F /  -14.4 °C 4.9 °F /  -15.1 °C 1006.0 in /  34063.2 hPa Calm     92 % 0.0 in /  0 mm 178.0 W/m2 CLR
14:03 6.1 °F /  -14.4 °C 5.1 °F /  -14.9 °C 1006.0 in /  34063.2 hPa Calm     93 % 0.0 in /  0 mm 160.0 W/m2 CLR
14:05 6.1 °F /  -14.4 °C 4.9 °F /  -15.1 °C 1006.0 in /  34063.2 hPa NE 1.9 mph /  3.1 km/h   92 % 0.0 in /  0 mm 151.0 W/m2 CLR
14:11 6.7 °F /  -14.1 °C 5.6 °F /  -14.7 °C 1006.0 in /  34063.2 hPa ENE 1.6 mph /  2.6 km/h 1.6 mph /  2.6 km/h 93 % 0.0 in /  0 mm 162.0 W/m2 CLR
14:12 6.7 °F /  -14.1 °C 5.6 °F /  -14.7 °C 1006.0 in /  34063.2 hPa NE 3.7 mph /  6 km/h 3.7 mph /  6 km/h 93 % 0.0 in /  0 mm 163.0 W/m2 CLR
14:17 6.1 °F /  -14.4 °C 4.9 °F /  -15.1 °C 1006.0 in /  34063.2 hPa Calm     92 % 0.0 in /  0 mm 174.0 W/m2 CLR
14:18 6.1 °F /  -14.4 °C 4.9 °F /  -15.1 °C 1006.0 in /  34063.2 hPa Calm     92 % 0.0 in /  0 mm 174.0 W/m2 CLR
14:23 6.1 °F /  -14.4 °C 5.1 °F /  -14.9 °C 1006.0 in /  34063.2 hPa Calm     93 % 0.0 in /  0 mm 172.0 W/m2 CLR
14:24 6.1 °F /  -14.4 °C 5.1 °F /  -14.9 °C 1006.0 in /  34063.2 hPa Calm     93 % 0.0 in /  0 mm 171.0 W/m2 CLR
14:29 6.1 °F /  -14.4 °C 5.1 °F /  -14.9 °C 1006.0 in /  34063.2 hPa Calm     93 % 0.0 in /  0 mm 169.0 W/m2 CLR
14:32 6.7 °F /  -14.1 °C 5.6 °F /  -14.7 °C 1006.0 in /  34063.2 hPa Calm     93 % 0.0 in /  0 mm 223.0 W/m2 CLR
14:37 6.7 °F /  -14.1 °C 5.4 °F /  -14.8 °C 1006.3 in /  34073.3 hPa Calm     92 % 0.0 in /  0 mm 192.0 W/m2 CLR
14:40 6.7 °F /  -14.1 °C 5.6 °F /  -14.7 °C 1006.3 in /  34073.3 hPa Calm     93 % 0.0 in /  0 mm 197.0 W/m2 CLR
14:45 6.7 °F /  -14.1 °C 5.6 °F /  -14.7 °C 1006.3 in /  34073.3 hPa Calm     93 % 0.0 in /  0 mm 206.0 W/m2 CLR
14:50 7.2 °F /  -13.8 °C 6.0 °F /  -14.4 °C 1006.3 in /  34073.3 hPa Calm     92 % 0.0 in /  0 mm 336.0 W/m2 CLR
14:55 7.2 °F /  -13.8 °C 6.2 °F /  -14.3 °C 1006.3 in /  34073.3 hPa Calm     93 % 0.0 in /  0 mm 232.0 W/m2 CLR
15:00 7.2 °F /  -13.8 °C 6.0 °F /  -14.4 °C 1006.3 in /  34073.3 hPa NE 3.7 mph /  6 km/h 3.7 mph /  6 km/h 92 % 0.0 in /  0 mm 223.0 W/m2 CLR
15:05 7.2 °F /  -13.8 °C 6.0 °F /  -14.4 °C 1006.3 in /  34073.3 hPa NE 3.7 mph /  6 km/h   92 % 0.0 in /  0 mm 220.0 W/m2 CLR
15:10 7.2 °F /  -13.8 °C 6.0 °F /  -14.4 °C 1006.3 in /  34073.3 hPa Calm     92 % 0.0 in /  0 mm 214.0 W/m2 CLR
15:11 7.2 °F /  -13.8 °C 6.0 °F /  -14.4 °C 1006.3 in /  34073.3 hPa Calm     92 % 0.0 in /  0 mm 216.0 W/m2 CLR
15:14 7.2 °F /  -13.8 °C 6.0 °F /  -14.4 °C 1006.3 in /  34073.3 hPa ENE 5.6 mph /  9 km/h   92 % 0.0 in /  0 mm 207.0 W/m2 CLR
15:19 7.8 °F /  -13.4 °C 6.6 °F /  -14.1 °C 1006.3 in /  34073.3 hPa Calm     92 % 0.0 in /  0 mm 197.0 W/m2 CLR
15:24 7.8 °F /  -13.4 °C 6.6 °F /  -14.1 °C 1006.7 in /  34086.9 hPa Calm     92 % 0.0 in /  0 mm 193.0 W/m2 CLR
15:25 7.8 °F /  -13.4 °C 6.6 °F /  -14.1 °C 1006.7 in /  34086.9 hPa Calm     92 % 0.0 in /  0 mm 186.0 W/m2 CLR
15:30 7.8 °F /  -13.4 °C 6.6 °F /  -14.1 °C 1006.7 in /  34086.9 hPa Calm     92 % 0.0 in /  0 mm 192.0 W/m2 CLR
15:33 7.8 °F /  -13.4 °C 6.6 °F /  -14.1 °C 1006.7 in /  34086.9 hPa ENE 1.6 mph /  2.6 km/h   92 % 0.0 in /  0 mm 183.0 W/m2 CLR
15:38 7.8 °F /  -13.4 °C 6.6 °F /  -14.1 °C 1006.7 in /  34086.9 hPa ENE 1.9 mph /  3.1 km/h 1.9 mph /  3.1 km/h 92 % 0.0 in /  0 mm 174.0 W/m2 CLR
15:43 7.8 °F /  -13.4 °C 6.6 °F /  -14.1 °C 1006.7 in /  34086.9 hPa NE 1.9 mph /  3.1 km/h 1.9 mph /  3.1 km/h 92 % 0.0 in /  0 mm 176.0 W/m2 CLR
15:44 7.8 °F /  -13.4 °C 6.6 °F /  -14.1 °C 1007.0 in /  34097 hPa NE 1.9 mph /  3.1 km/h 1.9 mph /  3.1 km/h 92 % 0.0 in /  0 mm 176.0 W/m2 CLR
15:50 7.8 °F /  -13.4 °C 6.6 °F /  -14.1 °C 1007.0 in /  34097 hPa Calm     92 % 0.0 in /  0 mm 155.0 W/m2 CLR
15:51 7.8 °F /  -13.4 °C 6.6 °F /  -14.1 °C 1007.0 in /  34097 hPa Calm     92 % 0.0 in /  0 mm 153.0 W/m2 CLR
15:56 7.8 °F /  -13.4 °C 6.6 °F /  -14.1 °C 1007.0 in /  34097 hPa Calm     92 % 0.0 in /  0 mm 144.0 W/m2 CLR
15:58 7.8 °F /  -13.4 °C 6.4 °F /  -14.2 °C 1007.0 in /  34097 hPa Calm     91 % 0.0 in /  0 mm 137.0 W/m2 CLR
16:01 7.8 °F /  -13.4 °C 6.6 °F /  -14.1 °C 1007.0 in /  34097 hPa Calm     92 % 0.0 in /  0 mm 142.0 W/m2 CLR
16:06 8.3 °F /  -13.2 °C 6.9 °F /  -13.9 °C 1007.0 in /  34097 hPa Calm     91 % 0.0 in /  0 mm 132.0 W/m2 CLR
16:07 8.3 °F /  -13.2 °C 6.9 °F /  -13.9 °C 1007.0 in /  34097 hPa Calm     91 % 0.0 in /  0 mm 127.0 W/m2 CLR
16:13 8.3 °F /  -13.2 °C 6.9 °F /  -13.9 °C 1007.0 in /  34097 hPa Calm     91 % 0.0 in /  0 mm 121.0 W/m2 CLR
16:15 8.3 °F /  -13.2 °C 6.9 °F /  -13.9 °C 1007.0 in /  34097 hPa Calm     91 % 0.0 in /  0 mm 127.0 W/m2 CLR
16:20 8.3 °F /  -13.2 °C 6.9 °F /  -13.9 °C 1007.0 in /  34097 hPa Calm     91 % 0.0 in /  0 mm 142.0 W/m2 CLR
16:25 8.3 °F /  -13.2 °C 6.8 °F /  -14 °C 1007.0 in /  34097 hPa NE 3.7 mph /  6 km/h 3.7 mph /  6 km/h 90 % 0.0 in /  0 mm 162.0 W/m2 CLR
16:30 8.3 °F /  -13.2 °C 6.8 °F /  -14 °C 1007.0 in /  34097 hPa Calm     90 % 0.0 in /  0 mm 160.0 W/m2 CLR
16:35 8.3 °F /  -13.2 °C 6.6 °F /  -14.1 °C 1007.0 in /  34097 hPa Calm     89 % 0.0 in /  0 mm 118.0 W/m2 CLR
16:39 8.3 °F /  -13.2 °C 6.6 °F /  -14.1 °C 1007.0 in /  34097 hPa Calm     89 % 0.0 in /  0 mm 134.0 W/m2 CLR
16:41 8.3 °F /  -13.2 °C 6.4 °F /  -14.2 °C 1007.0 in /  34097 hPa Calm     88 % 0.0 in /  0 mm 146.0 W/m2 CLR
16:46 8.3 °F /  -13.2 °C 6.3 °F /  -14.3 °C 1007.3 in /  34107.2 hPa ENE 3.7 mph /  6 km/h 3.7 mph /  6 km/h 87 % 0.0 in /  0 mm 141.0 W/m2 CLR
16:48 8.3 °F /  -13.2 °C 6.3 °F /  -14.3 °C 1007.3 in /  34107.2 hPa ENE 3.2 mph /  5.1 km/h 3.2 mph /  5.1 km/h 87 % 0.0 in /  0 mm 142.0 W/m2 CLR
16:52 8.3 °F /  -13.2 °C 6.1 °F /  -14.4 °C 1007.3 in /  34107.2 hPa ENE 3.7 mph /  6 km/h 3.7 mph /  6 km/h 86 % 0.0 in /  0 mm 128.0 W/m2 CLR
16:58 8.3 °F /  -13.2 °C 6.1 °F /  -14.4 °C 1007.3 in /  34107.2 hPa ENE 5.6 mph /  9 km/h 5.6 mph /  9 km/h 86 % 0.0 in /  0 mm 111.0 W/m2 CLR
17:01 8.3 °F /  -13.2 °C 5.9 °F /  -14.5 °C 1007.3 in /  34107.2 hPa ENE 5.6 mph /  9 km/h 5.6 mph /  9 km/h 85 % 0.0 in /  0 mm 93.0 W/m2 CLR
17:05 8.3 °F /  -13.2 °C 5.8 °F /  -14.6 °C 1007.3 in /  34107.2 hPa ENE 7.4 mph /  11.9 km/h 7.4 mph /  11.9 km/h 84 % 0.0 in /  0 mm 84.0 W/m2 FEW
17:06 8.3 °F /  -13.2 °C 5.8 °F /  -14.6 °C 1007.3 in /  34107.2 hPa ENE 5.6 mph /  9 km/h 5.6 mph /  9 km/h 84 % 0.0 in /  0 mm 81.0 W/m2 FEW
17:11 8.3 °F /  -13.2 °C 5.8 °F /  -14.6 °C 1007.7 in /  34120.7 hPa ENE 5.6 mph /  9 km/h 5.6 mph /  9 km/h 84 % 0.0 in /  0 mm 62.0 W/m2 SCT
17:16 8.3 °F /  -13.2 °C 5.9 °F /  -14.5 °C 1007.7 in /  34120.7 hPa Calm     85 % 0.0 in /  0 mm 42.0 W/m2 BKN
17:21 8.3 °F /  -13.2 °C 5.9 °F /  -14.5 °C 1007.7 in /  34120.7 hPa Calm     85 % 0.0 in /  0 mm 32.0 W/m2 BKN
17:22 7.8 °F /  -13.4 °C 5.2 °F /  -14.9 °C 1007.7 in /  34120.7 hPa Calm     84 % 0.0 in /  0 mm 30.0 W/m2 BKN
17:23 7.8 °F /  -13.4 °C 5.2 °F /  -14.9 °C 1007.7 in /  34120.7 hPa Calm     84 % 0.0 in /  0 mm 30.0 W/m2 BKN
17:28 7.8 °F /  -13.4 °C 5.4 °F /  -14.8 °C 1007.7 in /  34120.7 hPa Calm     85 % 0.0 in /  0 mm 23.0 W/m2 BKN
17:33 7.2 °F /  -13.8 °C 4.9 °F /  -15.1 °C 1007.7 in /  34120.7 hPa Calm     85 % 0.0 in /  0 mm 19.0 W/m2 BKN
17:34 7.2 °F /  -13.8 °C 4.9 °F /  -15.1 °C 1007.7 in /  34120.7 hPa Calm     85 % 0.0 in /  0 mm 18.0 W/m2 BKN
17:38 7.2 °F /  -13.8 °C 5.1 °F /  -14.9 °C 1008.0 in /  34130.9 hPa Calm     86 % 0.0 in /  0 mm 14.0 W/m2 BKN
17:43 6.7 °F /  -14.1 °C 4.5 °F /  -15.3 °C 1008.0 in /  34130.9 hPa North 11.3 mph /  18.2 km/h 11.3 mph /  18.2 km/h 86 % 0.0 in /  0 mm 11.0 W/m2 BKN
17:48 6.7 °F /  -14.1 °C 4.7 °F /  -15.2 °C 1008.0 in /  34130.9 hPa NNW 7.4 mph /  11.9 km/h 7.4 mph /  11.9 km/h 87 % 0.0 in /  0 mm 7.0 W/m2 OVC
17:53 6.1 °F /  -14.4 °C 4.3 °F /  -15.4 °C 1008.0 in /  34130.9 hPa NNW 14.8 mph /  23.8 km/h 14.8 mph /  23.8 km/h 88 % 0.0 in /  0 mm 5.0 W/m2 OVC
17:58 6.1 °F /  -14.4 °C 4.4 °F /  -15.3 °C 1008.0 in /  34130.9 hPa North 18.5 mph /  29.8 km/h 18.5 mph /  29.8 km/h 89 % 0.0 in /  0 mm 0.0 W/m2 CLR
18:03 6.1 °F /  -14.4 °C 4.6 °F /  -15.2 °C 1008.0 in /  34130.9 hPa North 18.5 mph /  29.8 km/h 18.5 mph /  29.8 km/h 90 % 0.0 in /  0 mm 0.0 W/m2 CLR
18:05 6.1 °F /  -14.4 °C 4.6 °F /  -15.2 °C 1008.0 in /  34130.9 hPa North 18.5 mph /  29.8 km/h 18.5 mph /  29.8 km/h 90 % 0.0 in /  0 mm 0.0 W/m2 CLR
18:10 5.6 °F /  -14.7 °C 4.1 °F /  -15.5 °C 1008.4 in /  34144.4 hPa North 20.4 mph /  32.8 km/h 20.4 mph /  32.8 km/h 90 % 0.0 in /  0 mm 0.0 W/m2 CLR
18:15 5.6 °F /  -14.7 °C 4.2 °F /  -15.4 °C 1008.7 in /  34154.6 hPa NNW 13.0 mph /  20.9 km/h 13.0 mph /  20.9 km/h 91 % 0.0 in /  0 mm 0.0 W/m2 CLR
18:16 5.6 °F /  -14.7 °C 4.2 °F /  -15.4 °C 1008.4 in /  34144.4 hPa NNW 7.4 mph /  11.9 km/h 7.4 mph /  11.9 km/h 91 % 0.0 in /  0 mm 0.0 W/m2 CLR
18:21 5.6 °F /  -14.7 °C 4.2 °F /  -15.4 °C 1008.7 in /  34154.6 hPa Calm     91 % 0.0 in /  0 mm 0.0 W/m2 CLR
18:24 5.6 °F /  -14.7 °C 4.2 °F /  -15.4 °C 1008.7 in /  34154.6 hPa Calm     91 % 0.0 in /  0 mm 0.0 W/m2 CLR
18:29 5.6 °F /  -14.7 °C 4.3 °F /  -15.4 °C 1008.7 in /  34154.6 hPa Calm     92 % 0.0 in /  0 mm 0.0 W/m2 CLR
18:34 5.6 °F /  -14.7 °C 4.3 °F /  -15.4 °C 1009.0 in /  34164.7 hPa Calm     92 % 0.0 in /  0 mm 0.0 W/m2 CLR
18:40 5.0 °F /  -15 °C 3.8 °F /  -15.7 °C 1009.0 in /  34164.7 hPa Calm     92 % 0.0 in /  0 mm 0.0 W/m2 CLR
18:43 5.0 °F /  -15 °C 3.8 °F /  -15.7 °C 1009.0 in /  34164.7 hPa Calm     92 % 0.0 in /  0 mm 0.0 W/m2 CLR
18:47 5.0 °F /  -15 °C 3.8 °F /  -15.7 °C 1009.0 in /  34164.7 hPa Calm     92 % 0.0 in /  0 mm 0.0 W/m2 CLR
18:52 5.0 °F /  -15 °C 3.8 °F /  -15.7 °C 1009.0 in /  34164.7 hPa Calm     92 % 0.0 in /  0 mm 0.0 W/m2 CLR
18:55 5.0 °F /  -15 °C 3.8 °F /  -15.7 °C 1009.0 in /  34164.7 hPa Calm     92 % 0.0 in /  0 mm 0.0 W/m2 CLR
19:00 5.0 °F /  -15 °C 3.8 °F /  -15.7 °C 1009.0 in /  34164.7 hPa Calm     92 % 0.0 in /  0 mm 0.0 W/m2 CLR
19:05 4.4 °F /  -15.3 °C 3.3 °F /  -15.9 °C 1009.0 in /  34164.7 hPa Calm     92 % 0.0 in /  0 mm 0.0 W/m2 CLR
19:10 4.4 °F /  -15.3 °C 3.3 °F /  -15.9 °C 1009.0 in /  34164.7 hPa Calm     92 % 0.0 in /  0 mm 0.0 W/m2 CLR
19:13 4.4 °F /  -15.3 °C 3.3 °F /  -15.9 °C 1009.0 in /  34164.7 hPa Calm     92 % 0.0 in /  0 mm 0.0 W/m2 CLR
19:18 3.9 °F /  -15.6 °C 2.7 °F /  -16.3 °C 1009.4 in /  34178.3 hPa Calm     92 % 0.0 in /  0 mm 0.0 W/m2 CLR
19:23 3.9 °F /  -15.6 °C 2.7 °F /  -16.3 °C 1009.4 in /  34178.3 hPa Calm     92 % 0.0 in /  0 mm 0.0 W/m2 CLR
19:26 3.9 °F /  -15.6 °C 2.7 °F /  -16.3 °C 1009.4 in /  34178.3 hPa Calm     92 % 0.0 in /  0 mm 0.0 W/m2 CLR
19:31 3.9 °F /  -15.6 °C 2.7 °F /  -16.3 °C 1009.4 in /  34178.3 hPa Calm     92 % 0.0 in /  0 mm 0.0 W/m2 CLR
19:36 3.9 °F /  -15.6 °C 2.7 °F /  -16.3 °C 1009.4 in /  34178.3 hPa Calm     92 % 0.0 in /  0 mm 0.0 W/m2 CLR
19:40 3.3 °F /  -15.9 °C 2.2 °F /  -16.6 °C 1009.7 in /  34188.4 hPa Calm     92 % 0.0 in /  0 mm 0.0 W/m2 CLR
19:42 3.3 °F /  -15.9 °C 2.2 °F /  -16.6 °C 1009.7 in /  34188.4 hPa Calm     92 % 0.0 in /  0 mm 0.0 W/m2 CLR
19:47 3.3 °F /  -15.9 °C 2.2 °F /  -16.6 °C 1009.7 in /  34188.4 hPa Calm     92 % 0.0 in /  0 mm 0.0 W/m2 CLR
19:52 2.8 °F /  -16.2 °C 1.6 °F /  -16.9 °C 1009.7 in /  34188.4 hPa Calm     92 % 0.0 in /  0 mm 0.0 W/m2 CLR
19:57 2.8 °F /  -16.2 °C 1.6 °F /  -16.9 °C 1010.0 in /  34198.6 hPa Calm     92 % 0.0 in /  0 mm 0.0 W/m2 CLR
20:02 2.2 °F /  -16.6 °C 1.1 °F /  -17.2 °C 1010.0 in /  34198.6 hPa Calm     92 % 0.0 in /  0 mm 0.0 W/m2 CLR
20:04 2.2 °F /  -16.6 °C 1.1 °F /  -17.2 °C 1010.0 in /  34198.6 hPa Calm     92 % 0.0 in /  0 mm 0.0 W/m2 CLR
20:09 2.2 °F /  -16.6 °C 1.1 °F /  -17.2 °C 1010.0 in /  34198.6 hPa Calm     92 % 0.0 in /  0 mm 0.0 W/m2 CLR
20:14 2.2 °F /  -16.6 °C 1.1 °F /  -17.2 °C 1010.0 in /  34198.6 hPa Calm     92 % 0.0 in /  0 mm 0.0 W/m2 CLR
20:17 2.2 °F /  -16.6 °C 1.1 °F /  -17.2 °C 1010.0 in /  34198.6 hPa Calm     92 % 0.0 in /  0 mm 0.0 W/m2 CLR
20:22 2.2 °F /  -16.6 °C 1.1 °F /  -17.2 °C 1010.0 in /  34198.6 hPa Calm     92 % 0.0 in /  0 mm 0.0 W/m2 CLR
20:27 2.2 °F /  -16.6 °C 1.1 °F /  -17.2 °C 1010.0 in /  34198.6 hPa Calm     92 % 0.3 in /  7.62 mm 0.0 W/m2 RA
20:32 2.2 °F /  -16.6 °C 1.1 °F /  -17.2 °C 1010.0 in /  34198.6 hPa Calm     92 % 0.3 in /  7.62 mm 0.0 W/m2
20:37 2.2 °F /  -16.6 °C 1.1 °F /  -17.2 °C 1010.0 in /  34198.6 hPa Calm     92 % 0.3 in /  7.62 mm 0.0 W/m2 CLR
20:42 2.2 °F /  -16.6 °C 1.1 °F /  -17.2 °C 1010.4 in /  34212.1 hPa Calm     92 % 0.3 in /  7.62 mm 0.0 W/m2 CLR
20:44 2.2 °F /  -16.6 °C 1.1 °F /  -17.2 °C 1010.4 in /  34212.1 hPa Calm     92 % 0.3 in /  7.62 mm 0.0 W/m2 CLR
20:49 2.2 °F /  -16.6 °C 1.1 °F /  -17.2 °C 1010.4 in /  34212.1 hPa Calm     92 % 0.3 in /  7.62 mm 0.0 W/m2 CLR
20:51 2.2 °F /  -16.6 °C 1.1 °F /  -17.2 °C 1010.4 in /  34212.1 hPa Calm     92 % 0.3 in /  7.62 mm 0.0 W/m2 CLR
20:56 2.2 °F /  -16.6 °C 1.2 °F /  -17.1 °C 1010.4 in /  34212.1 hPa Calm     93 % 0.3 in /  7.62 mm 0.0 W/m2 CLR
21:01 2.2 °F /  -16.6 °C 1.1 °F /  -17.2 °C 1010.4 in /  34212.1 hPa Calm     92 % 0.3 in /  7.62 mm 0.0 W/m2 CLR
21:06 1.7 °F /  -16.8 °C 0.7 °F /  -17.4 °C 1010.4 in /  34212.1 hPa Calm     93 % 0.3 in /  7.62 mm 0.0 W/m2 CLR
21:11 1.7 °F /  -16.8 °C 0.7 °F /  -17.4 °C 1010.4 in /  34212.1 hPa Calm     93 % 0.3 in /  7.62 mm 0.0 W/m2 CLR
21:13 1.7 °F /  -16.8 °C 0.7 °F /  -17.4 °C 1010.4 in /  34212.1 hPa Calm     93 % 0.3 in /  7.62 mm 0.0 W/m2 CLR
21:18 1.7 °F /  -16.8 °C 0.7 °F /  -17.4 °C 1010.4 in /  34212.1 hPa Calm     93 % 0.3 in /  7.62 mm 0.0 W/m2 CLR
21:19 1.7 °F /  -16.8 °C 0.5 °F /  -17.5 °C 1010.4 in /  34212.1 hPa Calm     92 % 0.3 in /  7.62 mm 0.0 W/m2 CLR
21:24 1.7 °F /  -16.8 °C 0.7 °F /  -17.4 °C 1010.7 in /  34222.3 hPa Calm     93 % 0.3 in /  7.62 mm 0.0 W/m2 CLR
21:25 1.7 °F /  -16.8 °C 0.7 °F /  -17.4 °C 1010.7 in /  34222.3 hPa Calm     93 % 0.3 in /  7.62 mm 0.0 W/m2 CLR
21:31 1.7 °F /  -16.8 °C 0.7 °F /  -17.4 °C 1010.7 in /  34222.3 hPa Calm     93 % 0.0 in /  0 mm 0.0 W/m2 CLR
21:37 1.7 °F /  -16.8 °C 0.7 °F /  -17.4 °C 1010.7 in /  34222.3 hPa Calm     93 % 0.0 in /  0 mm 0.0 W/m2 CLR
21:42 2.2 °F /  -16.6 °C 1.2 °F /  -17.1 °C 1010.7 in /  34222.3 hPa Calm     93 % 0.0 in /  0 mm 0.0 W/m2 CLR
21:47 1.7 °F /  -16.8 °C 0.7 °F /  -17.4 °C 1011.1 in /  34235.8 hPa Calm     93 % 0.0 in /  0 mm 0.0 W/m2 CLR
21:52 1.7 °F /  -16.8 °C 0.5 °F /  -17.5 °C 1011.1 in /  34235.8 hPa Calm     92 % 0.0 in /  0 mm 0.0 W/m2 CLR
21:54 1.1 °F /  -17.2 °C -0.1 °F /  -17.8 °C 1011.1 in /  34235.8 hPa Calm     92 % 0.0 in /  0 mm 0.0 W/m2 CLR
21:59 1.1 °F /  -17.2 °C 0.1 °F /  -17.7 °C 1011.1 in /  34235.8 hPa Calm     93 % 0.0 in /  0 mm 0.0 W/m2 CLR
22:00 1.1 °F /  -17.2 °C 0.1 °F /  -17.7 °C 1011.1 in /  34235.8 hPa Calm     93 % 0.0 in /  0 mm 0.0 W/m2 CLR
22:05 1.1 °F /  -17.2 °C 0.1 °F /  -17.7 °C 1011.1 in /  34235.8 hPa Calm     93 % 0.0 in /  0 mm 0.0 W/m2 CLR
22:10 1.1 °F /  -17.2 °C 0.1 °F /  -17.7 °C 1011.1 in /  34235.8 hPa Calm     93 % 0.0 in /  0 mm 0.0 W/m2 CLR
22:12 1.1 °F /  -17.2 °C 0.1 °F /  -17.7 °C 1011.1 in /  34235.8 hPa Calm     93 % 0.0 in /  0 mm 0.0 W/m2 CLR
22:17 1.1 °F /  -17.2 °C 0.1 °F /  -17.7 °C 1011.1 in /  34235.8 hPa Calm     93 % 0.0 in /  0 mm 0.0 W/m2 CLR
22:22 1.1 °F /  -17.2 °C 0.1 °F /  -17.7 °C 1011.1 in /  34235.8 hPa Calm     93 % 0.0 in /  0 mm 0.0 W/m2 CLR
22:27 1.1 °F /  -17.2 °C 0.1 °F /  -17.7 °C 1011.1 in /  34235.8 hPa Calm     93 % 0.0 in /  0 mm 0.0 W/m2 CLR
22:32 1.1 °F /  -17.2 °C 0.1 °F /  -17.7 °C 1011.1 in /  34235.8 hPa Calm     93 % 0.0 in /  0 mm 0.0 W/m2 CLR
22:33 1.1 °F /  -17.2 °C 0.1 °F /  -17.7 °C 1011.1 in /  34235.8 hPa Calm     93 % 0.0 in /  0 mm 0.0 W/m2 CLR
22:38 1.1 °F /  -17.2 °C 0.1 °F /  -17.7 °C 1011.4 in /  34246 hPa Calm     93 % 0.0 in /  0 mm 0.0 W/m2 CLR
22:41 1.1 °F /  -17.2 °C 0.1 °F /  -17.7 °C 1011.4 in /  34246 hPa Calm     93 % 0.0 in /  0 mm 0.0 W/m2 CLR
22:46 1.1 °F /  -17.2 °C 0.1 °F /  -17.7 °C 1011.4 in /  34246 hPa Calm     93 % 0.0 in /  0 mm 0.0 W/m2 CLR
22:51 1.1 °F /  -17.2 °C 0.1 °F /  -17.7 °C 1011.1 in /  34235.8 hPa Calm     93 % 0.0 in /  0 mm 0.0 W/m2 CLR
22:56 0.6 °F /  -17.4 °C -0.4 °F /  -18 °C 1011.4 in /  34246 hPa Calm     93 % 0.0 in /  0 mm 0.0 W/m2 CLR
23:01 0.6 °F /  -17.4 °C -0.4 °F /  -18 °C 1011.4 in /  34246 hPa Calm     93 % 0.0 in /  0 mm 0.0 W/m2 CLR
23:04 0.6 °F /  -17.4 °C -0.4 °F /  -18 °C 1011.7 in /  34256.2 hPa Calm     93 % 0.0 in /  0 mm 0.0 W/m2 CLR
23:09 0.0 °F /  -17.8 °C -1.0 °F /  -18.3 °C 1011.4 in /  34246 hPa Calm     93 % 0.0 in /  0 mm 0.0 W/m2 CLR
23:12 0.0 °F /  -17.8 °C -1.0 °F /  -18.3 °C 1011.4 in /  34246 hPa Calm     93 % 0.0 in /  0 mm 0.0 W/m2 CLR
23:17 0.0 °F /  -17.8 °C -1.0 °F /  -18.3 °C 1011.4 in /  34246 hPa Calm     93 % 0.0 in /  0 mm 0.0 W/m2 CLR
23:19 0.0 °F /  -17.8 °C -1.0 °F /  -18.3 °C 1011.4 in /  34246 hPa Calm     93 % 0.0 in /  0 mm 0.0 W/m2 CLR
23:24 0.0 °F /  -17.8 °C -1.0 °F /  -18.3 °C 1011.7 in /  34256.2 hPa Calm     93 % 0.0 in /  0 mm 0.0 W/m2 CLR
23:29 -0.6 °F /  -18.1 °C -1.6 °F /  -18.7 °C 1011.7 in /  34256.2 hPa Calm     93 % 0.0 in /  0 mm 0.0 W/m2 CLR
23:34 -0.6 °F /  -18.1 °C -1.6 °F /  -18.7 °C 1011.7 in /  34256.2 hPa Calm     93 % 0.0 in /  0 mm 0.0 W/m2 CLR
23:38 -0.6 °F /  -18.1 °C -1.6 °F /  -18.7 °C 1011.7 in /  34256.2 hPa Calm     93 % 0.0 in /  0 mm 0.0 W/m2 CLR
23:42 -0.6 °F /  -18.1 °C -1.6 °F /  -18.7 °C 1011.7 in /  34256.2 hPa Calm     93 % 0.0 in /  0 mm 0.0 W/m2 CLR
23:48 -0.6 °F /  -18.1 °C -1.6 °F /  -18.7 °C 1011.7 in /  34256.2 hPa Calm     93 % 0.0 in /  0 mm 0.0 W/m2 CLR
23:50 -0.6 °F /  -18.1 °C -1.6 °F /  -18.7 °C 1011.7 in /  34256.2 hPa Calm     93 % 0.0 in /  0 mm 0.0 W/m2 CLR
23:55 0.0 °F /  -17.8 °C -1.0 °F /  -18.3 °C 1011.7 in /  34256.2 hPa Calm     93 % 0.0 in /  0 mm 0.0 W/m2 CLR
Lo Temps de Massalio
Compliments of Weather Underground - 1.25 mb